Aspen Park, Colorado
Current Conditions -  °F | °C
As of 9:53 AM on Saturday 25 Oct 2014 (Local Time) from KAPA Reporting Station
Clear Clear  
Wind Chill: 18°   Ceiling: Unl
Heat Index: 18°   Visibility: 10mi
Dew Point: -2°   Wind: 3mph
Humidity: 27%   Direction: 100°E
Pressure: 30.29"   Gusts: NA
Location:  39.4975°N, 105.289°W
Report Text: KAPA 251553Z 10003KT 10SM CLR 18/M02 A3029 RMK AO2 SLP213 T01781017
Loading
Personal Weather Stations






























Interactive Weather Map
Tropical Storm Tracking
New forecast layout! Learn more

10-Day Weather Forecast

Advertisements
Track Severe Weather on mobile